Time;durP1;ratioP1;P1;durP2;ratioP2;P2;SDS_P1;SDS_P2;PMS_P1;PMS_P2;Temp;Humidity;BMP_temperature;BMP_pressure;BME280_temperature;BME280_humidity;BME280_pressure;Samples;Min_cycle;Max_cycle;Signal;HPM_P1;HPM_P2
2022/02/09 00:05:12;;;;;;;1.37;1.03;;;22.20;62.60;;;;;;5113455;28;20647;-81
2022/02/09 00:07:45;;;;;;;1.77;1.10;;;22.30;62.70;;;;;;5115457;28;20734;-81
2022/02/09 00:10:12;;;;;;;2.00;1.40;;;22.20;62.50;;;;;;5114175;28;20917;-81
2022/02/09 00:12:45;;;;;;;1.40;1.00;;;22.20;62.50;;;;;;5114240;28;20963;-82
2022/02/09 00:15:26;;;;;;;1.43;1.10;;;22.20;63.30;;;;;;5114210;28;20959;-82
2022/02/09 00:18:01;;;;;;;2.17;1.33;;;22.20;62.50;;;;;;5114502;28;20420;-86
2022/02/09 00:20:59;;;;;;;1.50;1.00;;;22.20;62.50;;;;;;5114241;28;20434;-81
2022/02/09 00:29:14;;;;;;;1.10;1.00;;;22.20;62.50;;;;;;5114150;28;20410;-82
2022/02/09 00:37:31;;;;;;;1.30;1.17;;;22.20;62.40;;;;;;5088242;28;20486;-81
2022/02/09 00:40:28;;;;;;;1.47;1.37;;;22.20;62.50;;;;;;5114238;28;20477;-86
2022/02/09 01:38:05;;;;;;;2.28;1.30;;;22.10;62.20;;;;;;5117724;28;20402;-81
2022/02/09 01:38:54;;;;;;;1.20;1.00;;;22.10;62.10;;;;;;5117586;28;20464;-81
2022/02/09 01:55:32;;;;;;;1.33;1.20;;;22.10;62.10;;;;;;5033450;28;20515;-82
2022/02/09 01:57:58;;;;;;;1.30;1.10;;;22.10;62.10;;;;;;5085695;28;20284;-82
2022/02/09 02:00:27;;;;;;;1.77;1.00;;;22.10;61.90;;;;;;5116827;28;20232;-81
2022/02/09 02:02:54;;;;;;;1.20;1.03;;;22.20;62.00;;;;;;5117027;28;20430;-85
2022/02/09 02:05:21;;;;;;;1.25;0.95;;;22.20;61.90;;;;;;5116630;28;20458;-81
2022/02/09 02:07:51;;;;;;;1.10;0.90;;;22.20;62.00;;;;;;5116972;28;20192;-84
2022/02/09 02:10:25;;;;;;;1.20;1.10;;;22.20;61.90;;;;;;5115767;28;20988;-81
2022/02/09 02:12:58;;;;;;;2.13;1.00;;;22.20;61.90;;;;;;5116957;28;20457;-82
2022/02/09 02:15:52;;;;;;;1.20;1.00;;;22.10;61.80;;;;;;5116456;28;20960;-85
2022/02/09 02:18:20;;;;;;;1.30;1.00;;;22.10;61.80;;;;;;5116788;28;20826;-81
2022/02/09 02:20:59;;;;;;;1.10;0.90;;;22.10;61.80;;;;;;5117264;28;20483;-81
2022/02/09 02:23:41;;;;;;;2.07;1.00;;;22.10;61.80;;;;;;5116770;28;20788;-81
2022/02/09 02:26:21;;;;;;;1.40;1.20;;;22.10;61.90;;;;;;5116303;28;20438;-81
2022/02/09 02:28:57;;;;;;;1.33;1.00;;;22.10;61.90;;;;;;5116272;28;20433;-81
2022/02/09 02:31:49;;;;;;;1.27;0.83;;;22.10;61.90;;;;;;5116530;28;20466;-82
2022/02/09 02:34:51;;;;;;;1.10;0.87;;;22.10;61.90;;;;;;5116460;28;20484;-82
2022/02/09 02:37:53;;;;;;;1.10;1.00;;;22.10;61.90;;;;;;5115931;28;20474;-82
2022/02/09 02:57:35;;;;;;;1.20;0.80;;;22.00;61.90;;;;;;5116078;28;20830;-83
2022/02/09 03:11:17;;;;;;;1.00;0.77;;;22.00;61.90;;;;;;5115748;28;20400;-81
2022/02/09 03:13:53;;;;;;;1.30;0.80;;;22.00;61.90;;;;;;5115767;28;20419;-81
2022/02/09 03:16:28;;;;;;;1.67;1.00;;;22.00;61.90;;;;;;5115550;28;20493;-81
2022/02/09 03:19:19;;;;;;;1.10;0.90;;;22.00;61.90;;;;;;5115573;28;20426;-86
2022/02/09 03:21:51;;;;;;;1.20;0.90;;;22.00;61.90;;;;;;5115439;28;20441;-81
2022/02/09 03:24:31;;;;;;;1.20;0.90;;;22.00;61.90;;;;;;5115546;28;20426;-81
2022/02/09 03:27:21;;;;;;;1.08;0.80;;;22.00;61.90;;;;;;5115844;28;20460;-82
2022/02/09 03:43:58;;;;;;;1.10;0.80;;;22.00;61.90;;;;;;5115013;28;20486;-81
2022/02/09 03:46:45;;;;;;;1.00;0.80;;;22.00;61.90;;;;;;5115057;28;20419;-86
2022/02/09 03:49:28;;;;;;;1.07;0.83;;;22.00;61.90;;;;;;5114971;28;20419;-81
2022/02/09 03:52:04;;;;;;;1.10;0.90;;;22.00;61.90;;;;;;5114949;28;20419;-86
2022/02/09 03:54:36;;;;;;;1.00;0.80;;;22.00;61.90;;;;;;5114943;28;20502;-81
2022/02/09 03:57:10;;;;;;;1.10;0.90;;;22.00;61.80;;;;;;5114450;28;20492;-82
2022/02/09 03:59:36;;;;;;;1.57;0.90;;;22.00;61.90;;;;;;5114816;28;20430;-81
2022/02/09 04:02:06;;;;;;;1.00;0.87;;;22.00;61.80;;;;;;5114299;28;20474;-81
2022/02/09 04:04:33;;;;;;;1.00;0.70;;;22.00;61.90;;;;;;5114739;28;20442;-81
2022/02/09 04:07:01;;;;;;;1.00;0.80;;;22.00;61.80;;;;;;5115471;28;20445;-87
2022/02/09 04:09:31;;;;;;;1.20;1.00;;;22.00;61.80;;;;;;5114629;28;20526;-81
2022/02/09 04:12:05;;;;;;;1.00;0.80;;;22.00;61.80;;;;;;5114599;28;20439;-86
2022/02/09 04:14:41;;;;;;;1.10;0.80;;;22.00;61.70;;;;;;5114620;28;20468;-81
2022/02/09 04:17:19;;;;;;;1.23;0.83;;;22.00;61.70;;;;;;5114626;28;20474;-81
2022/02/09 04:20:06;;;;;;;1.00;0.70;;;22.00;61.70;;;;;;5115093;28;20454;-81
2022/02/09 04:36:31;;;;;;;1.10;0.80;;;22.00;61.70;;;;;;5114076;28;20238;-81
2022/02/09 04:39:04;;;;;;;1.30;0.90;;;22.00;61.60;;;;;;5114248;28;20426;-82
2022/02/09 04:44:30;;;;;;;1.33;0.82;;;22.00;61.60;;;;;;5112958;28;20481;-81
2022/02/09 04:47:22;;;;;;;1.30;1.10;;;22.00;61.50;;;;;;5114249;28;20192;-86
2022/02/09 04:50:01;;;;;;;1.10;0.90;;;22.00;61.50;;;;;;5114165;28;20277;-85
2022/02/09 04:52:40;;;;;;;1.20;1.00;;;22.10;61.50;;;;;;5114162;28;20423;-81
2022/02/09 04:57:52;;;;;;;1.20;0.90;;;22.00;61.40;;;;;;5113637;28;21020;-82
2022/02/09 05:00:28;;;;;;;1.40;1.00;;;22.00;61.50;;;;;;5113831;28;20869;-81
2022/02/09 05:25:12;;;;;;;0.97;0.70;;;22.00;61.60;;;;;;5113927;28;20504;-81
2022/02/09 05:27:50;;;;;;;1.10;0.85;;;21.90;61.50;;;;;;5113859;28;20441;-81
2022/02/09 05:30:17;;;;;;;1.20;0.87;;;21.90;61.40;;;;;;5113812;28;20181;-81
2022/02/09 05:32:43;;;;;;;1.00;0.73;;;22.00;61.50;;;;;;5113751;28;20458;-81
2022/02/09 05:35:10;;;;;;;0.90;0.70;;;22.00;61.50;;;;;;5113731;28;20427;-81
2022/02/09 05:37:39;;;;;;;1.00;0.70;;;22.00;61.50;;;;;;5113300;28;20225;-81
2022/02/09 05:40:07;;;;;;;1.10;0.80;;;22.00;61.50;;;;;;5113671;28;20435;-82
2022/02/09 05:42:34;;;;;;;1.00;0.70;;;22.00;61.50;;;;;;5113589;28;20438;-81
2022/02/09 05:45:05;;;;;;;1.30;0.93;;;22.00;61.50;;;;;;5113621;28;20431;-82
2022/02/09 05:50:26;;;;;;;1.63;0.80;;;22.00;61.50;;;;;;5117186;28;20399;-81
2022/02/09 05:53:05;;;;;;;1.10;0.80;;;21.90;61.40;;;;;;5117279;28;20441;-85
2022/02/09 05:55:52;;;;;;;1.13;0.80;;;21.90;62.30;;;;;;5117269;28;20580;-82
2022/02/09 06:01:04;;;;;;;1.13;0.87;;;21.90;61.40;;;;;;5113826;28;20466;-81
2022/02/09 06:03:31;;;;;;;1.00;0.80;;;21.90;61.40;;;;;;5116925;28;20446;-86
2022/02/09 06:05:58;;;;;;;1.43;0.87;;;21.90;61.40;;;;;;5117008;28;20439;-82
2022/02/09 06:08:26;;;;;;;1.00;0.80;;;21.90;61.40;;;;;;5117708;28;20435;-82
2022/02/09 06:11:08;;;;;;;1.10;0.80;;;21.90;61.40;;;;;;5116897;28;20442;-83
2022/02/09 06:19:42;;;;;;;1.00;0.80;;;21.90;61.40;;;;;;5053666;28;20465;-82
2022/02/09 06:22:08;;;;;;;1.20;0.87;;;21.90;61.50;;;;;;5053760;28;20438;-84
2022/02/09 06:24:38;;;;;;;1.20;0.85;;;21.90;61.50;;;;;;5091527;28;20489;-82
2022/02/09 06:27:05;;;;;;;1.10;0.90;;;21.80;61.90;;;;;;5116639;28;20343;-82
2022/02/09 06:29:32;;;;;;;1.00;0.90;;;21.80;61.70;;;;;;5116513;28;20435;-82
2022/02/09 06:32:06;;;;;;;1.00;0.70;;;21.80;61.60;;;;;;5116452;28;20437;-81
2022/02/09 06:34:33;;;;;;;1.00;0.80;;;21.90;61.80;;;;;;5116956;28;20419;-85
2022/02/09 06:37:10;;;;;;;1.40;0.80;;;21.90;62.10;;;;;;5117072;28;20491;-94
2022/02/09 06:39:39;;;;;;;1.30;0.93;;;21.90;62.30;;;;;;5116485;28;20449;-82
2022/02/09 06:42:06;;;;;;;10.87;8.70;;;21.90;62.10;;;;;;5116219;28;20447;-91
2022/02/09 06:44:33;;;;;;;74.27;68.23;;;21.90;62.30;;;;;;5116213;28;20803;-82
2022/02/09 06:47:00;;;;;;;80.20;73.20;;;21.90;62.10;;;;;;5116130;28;20445;-82
2022/02/09 06:49:29;;;;;;;63.87;58.07;;;22.00;62.30;;;;;;5115831;28;20201;-82
2022/02/09 06:51:56;;;;;;;77.70;70.37;;;22.00;62.10;;;;;;5116073;28;20537;-88
2022/02/09 06:54:28;;;;;;;83.63;76.13;;;22.00;62.10;;;;;;5115805;28;20444;-83
2022/02/09 06:57:06;;;;;;;83.40;76.30;;;22.00;62.30;;;;;;5115563;28;20486;-82
2022/02/09 06:59:38;;;;;;;80.67;73.67;;;22.00;62.40;;;;;;5116003;28;20435;-83
2022/02/09 07:02:06;;;;;;;79.43;72.77;;;22.00;62.60;;;;;;5115464;28;20503;-81
2022/02/09 07:04:35;;;;;;;78.30;71.30;;;22.10;62.80;;;;;;5115628;28;20444;-82
2022/02/09 07:07:02;;;;;;;74.57;68.23;;;22.10;62.90;;;;;;5115779;28;20434;-81
2022/02/09 07:09:29;;;;;;;74.10;67.80;;;22.10;62.70;;;;;;5115843;28;20791;-81
2022/02/09 07:11:58;;;;;;;69.67;63.57;;;22.10;62.60;;;;;;5115477;28;20442;-86
2022/02/09 07:14:27;;;;;;;67.90;62.07;;;22.10;62.60;;;;;;5115672;28;20439;-81
2022/02/09 07:16:56;;;;;;;69.30;63.40;;;22.10;62.80;;;;;;5115521;28;20569;-82
2022/02/09 07:19:23;;;;;;;66.10;60.30;;;22.10;62.80;;;;;;5115511;28;20447;-82
2022/02/09 07:21:50;;;;;;;64.73;59.10;;;22.10;62.50;;;;;;5115621;28;20431;-82
2022/02/09 07:24:19;;;;;;;64.17;58.63;;;22.20;62.80;;;;;;5115478;28;20435;-82
2022/02/09 07:27:02;;;;;;;59.63;54.58;;;22.20;63.20;;;;;;5115345;28;20431;-84
2022/02/09 07:29:30;;;;;;;71.27;65.50;;;22.20;63.20;;;;;;5115452;28;20587;-84
2022/02/09 07:31:57;;;;;;;59.00;54.10;;;22.20;63.30;;;;;;5115277;28;20808;-85
2022/02/09 07:34:24;;;;;;;54.90;50.13;;;22.30;63.40;;;;;;5115241;28;20792;-85
2022/02/09 07:36:51;;;;;;;58.77;53.97;;;22.30;63.30;;;;;;5114813;28;20481;-85
2022/02/09 07:39:19;;;;;;;54.20;49.73;;;22.30;63.40;;;;;;5115184;28;20443;-84
2022/02/09 07:41:48;;;;;;;52.60;48.10;;;22.30;63.50;;;;;;5115114;28;20440;-85
2022/02/09 07:44:31;;;;;;;54.43;50.03;;;22.30;63.30;;;;;;5115059;28;20445;-85
2022/02/09 07:47:09;;;;;;;52.20;47.67;;;22.40;63.30;;;;;;5114762;28;20530;-85
2022/02/09 07:49:51;;;;;;;53.27;48.77;;;22.30;63.20;;;;;;5115411;28;20423;-84
2022/02/09 07:52:25;;;;;;;49.70;45.80;;;22.30;63.20;;;;;;5115003;28;20514;-84
2022/02/09 07:54:54;;;;;;;44.03;40.63;;;22.30;63.20;;;;;;5114987;28;20435;-84
2022/02/09 07:57:21;;;;;;;45.00;41.20;;;22.30;63.30;;;;;;5114814;28;20491;-85
2022/02/09 07:59:48;;;;;;;44.97;41.20;;;22.40;63.50;;;;;;5114891;28;20448;-84
2022/02/09 08:02:16;;;;;;;43.93;40.13;;;22.30;63.10;;;;;;5114778;28;20472;-84
2022/02/09 08:04:43;;;;;;;42.83;39.43;;;22.40;63.40;;;;;;5114502;28;20435;-84
2022/02/09 08:07:09;;;;;;;43.00;39.58;;;22.40;63.40;;;;;;5114090;28;20439;-85
2022/02/09 08:09:39;;;;;;;39.73;36.70;;;22.40;63.40;;;;;;5113783;28;20439;-84
2022/02/09 08:22:00;;;;;;;36.23;33.33;;;22.50;63.30;;;;;;5012385;28;20432;-84
2022/02/09 08:23:52;;;;;;;60.63;55.43;;;22.40;63.20;;;;;;5011703;28;20851;-84
2022/02/09 08:29:17;;;;;;;44.60;40.80;;;22.40;63.30;;;;;;5114164;28;20429;-83
2022/02/09 08:34:41;;;;;;;42.33;38.83;;;22.30;63.30;;;;;;5031447;28;20554;-87
2022/02/09 08:37:08;;;;;;;43.75;40.22;;;22.30;63.40;;;;;;5094260;28;20470;-87
2022/02/09 08:39:36;;;;;;;42.07;38.50;;;22.40;63.50;;;;;;5113857;28;20200;-80
2022/02/09 08:42:04;;;;;;;43.93;39.90;;;22.40;63.30;;;;;;5114064;28;20800;-84
2022/02/09 08:44:31;;;;;;;42.20;38.30;;;22.40;63.30;;;;;;5114079;28;20435;-85
2022/02/09 08:46:58;;;;;;;41.03;37.33;;;22.40;63.20;;;;;;5114049;28;20522;-80
2022/02/09 08:49:26;;;;;;;41.50;37.60;;;22.40;63.10;;;;;;5113819;28;20427;-80
2022/02/09 08:51:56;;;;;;;36.10;32.80;;;22.40;63.40;;;;;;5114186;28;20439;-84
2022/02/09 08:54:23;;;;;;;36.25;32.88;;;22.40;63.30;;;;;;5115263;28;20487;-96
2022/02/09 08:56:53;;;;;;;21.27;19.40;;;22.40;63.30;;;;;;5114028;28;20197;-87
2022/02/09 08:59:23;;;;;;;24.27;22.07;;;22.40;63.10;;;;;;5114142;28;21017;-95
2022/02/09 09:01:56;;;;;;;29.17;26.67;;;22.50;63.10;;;;;;5114181;28;20506;-95
2022/02/09 09:04:26;;;;;;;28.00;25.40;;;22.40;63.10;;;;;;5113863;28;20429;-96
2022/02/09 09:06:56;;;;;;;27.40;25.00;;;22.40;63.10;;;;;;5114176;28;20929;-87
2022/02/09 09:09:28;;;;;;;25.97;23.47;;;22.40;63.10;;;;;;5114471;28;20441;-90
2022/02/09 09:17:37;;;;;;;27.93;25.00;;;22.40;63.00;;;;;;5092770;28;20467;-96
2022/02/09 10:01:50;;;;;;;17.10;15.60;;;22.50;63.20;;;;;;5082222;28;20971;-88
2022/02/09 10:04:38;;;;;;;55.67;37.97;;;22.60;63.40;;;;;;5116939;28;20427;-86
2022/02/09 10:35:11;;;;;;;32.80;25.37;;;22.90;62.70;;;;;;5115879;28;20508;-83
2022/02/09 10:37:38;;;;;;;32.90;26.52;;;22.90;62.70;;;;;;5116402;28;20548;-83
2022/02/09 10:40:11;;;;;;;32.00;24.80;;;22.90;62.70;;;;;;5116343;28;20554;-83
2022/02/09 10:42:41;;;;;;;36.17;26.63;;;22.90;62.70;;;;;;5116388;28;20485;-83
2022/02/09 10:45:30;;;;;;;32.93;25.80;;;23.00;62.80;;;;;;5116221;28;20496;-85
2022/02/09 10:47:57;;;;;;;31.20;23.10;;;22.90;62.50;;;;;;5115963;28;20431;-83
2022/02/09 10:50:27;;;;;;;25.87;22.13;;;22.90;62.60;;;;;;5116996;28;20443;-83
2022/02/09 10:52:57;;;;;;;31.00;23.43;;;22.90;62.70;;;;;;5116424;28;20479;-83
2022/02/09 10:55:34;;;;;;;26.60;23.00;;;22.90;62.70;;;;;;5116079;28;20452;-84
2022/02/09 10:58:02;;;;;;;24.27;20.70;;;22.90;62.60;;;;;;5115705;28;20502;-83
2022/02/09 11:00:30;;;;;;;23.30;20.07;;;22.90;62.70;;;;;;5115731;28;20467;-83
2022/02/09 11:02:57;;;;;;;25.40;21.10;;;22.90;62.70;;;;;;5115557;28;20439;-84
2022/02/09 11:05:24;;;;;;;23.87;20.63;;;22.90;62.70;;;;;;5115715;28;20443;-83
2022/02/09 11:07:52;;;;;;;21.50;18.00;;;22.90;62.70;;;;;;5115757;28;20457;-83
2022/02/09 11:10:19;;;;;;;23.90;18.40;;;22.90;62.60;;;;;;5115648;28;20435;-85
2022/02/09 11:12:46;;;;;;;22.37;19.10;;;23.00;62.80;;;;;;5115609;28;20435;-82
2022/02/09 11:15:18;;;;;;;21.97;18.00;;;22.90;62.60;;;;;;5115197;28;20450;-88
2022/02/09 11:17:48;;;;;;;24.40;18.90;;;22.90;62.70;;;;;;5116315;28;20455;-82
2022/02/09 11:20:17;;;;;;;18.60;16.33;;;22.90;62.80;;;;;;5115516;28;20443;-83
2022/02/09 11:22:45;;;;;;;19.97;15.33;;;22.90;63.00;;;;;;5115282;28;20483;-82
2022/02/09 11:25:17;;;;;;;21.43;16.97;;;22.90;63.00;;;;;;5115136;28;20891;-83
2022/02/09 11:27:51;;;;;;;20.53;16.07;;;22.90;63.10;;;;;;5115093;28;20427;-82
2022/02/09 11:30:30;;;;;;;19.60;15.77;;;22.90;63.10;;;;;;5115403;28;20431;-82
2022/02/09 11:33:22;;;;;;;18.10;15.30;;;22.90;63.10;;;;;;5116289;28;20513;-82
2022/02/09 11:36:16;;;;;;;19.03;14.77;;;22.90;62.90;;;;;;5115489;28;20924;-84
2022/02/09 11:38:47;;;;;;;20.30;14.80;;;22.90;62.90;;;;;;5115158;28;20481;-82
2022/02/09 11:41:17;;;;;;;17.27;13.50;;;22.90;63.10;;;;;;5115253;28;20831;-84
2022/02/09 11:43:59;;;;;;;14.60;13.03;;;22.90;63.10;;;;;;5114151;28;20438;-87
2022/02/09 11:46:41;;;;;;;16.70;13.97;;;22.90;63.20;;;;;;5115222;28;20419;-82
2022/02/09 11:52:10;;;;;;;14.93;12.90;;;22.90;63.50;;;;;;5114776;28;20427;-84
2022/02/09 11:54:52;;;;;;;14.83;13.17;;;23.00;63.50;;;;;;5114840;28;20434;-81
2022/02/09 11:58:06;;;;;;;16.63;12.53;;;22.90;63.40;;;;;;5115426;28;20495;-85
2022/02/09 12:00:49;;;;;;;14.07;12.27;;;22.90;63.30;;;;;;5114281;28;20846;-82
2022/02/09 12:09:50;;;;;;;12.57;11.33;;;22.90;63.40;;;;;;5114797;28;20398;-84
2022/02/09 12:12:21;;;;;;;15.97;11.77;;;22.90;63.50;;;;;;5114274;28;20430;-84
2022/02/09 12:14:56;;;;;;;12.77;11.50;;;22.90;63.60;;;;;;5114701;28;20484;-82
2022/02/09 12:17:37;;;;;;;11.63;10.43;;;22.90;63.50;;;;;;5115451;28;20442;-85
2022/02/09 12:20:16;;;;;;;11.93;10.30;;;22.90;63.50;;;;;;5114303;28;20436;-85
2022/02/09 12:22:49;;;;;;;11.50;10.23;;;23.00;63.80;;;;;;5115249;28;20430;-80
2022/02/09 12:25:16;;;;;;;12.33;10.67;;;23.00;63.90;;;;;;5115070;28;20480;-82
2022/02/09 12:27:49;;;;;;;10.90;9.70;;;23.00;64.00;;;;;;5114344;28;20841;-82
2022/02/09 12:30:22;;;;;;;11.73;9.30;;;23.00;63.90;;;;;;5114372;28;20431;-82
2022/02/09 12:32:48;;;;;;;10.93;9.23;;;23.00;63.80;;;;;;5115139;28;20431;-87
2022/02/09 12:35:16;;;;;;;10.30;8.03;;;23.00;63.80;;;;;;5114191;28;20518;-82
2022/02/09 12:37:46;;;;;;;10.13;8.80;;;23.00;64.30;;;;;;5114728;28;20562;-83
2022/02/09 12:40:16;;;;;;;9.17;8.07;;;23.00;64.20;;;;;;5114711;28;20439;-87
2022/02/09 12:42:44;;;;;;;9.70;8.80;;;23.10;64.10;;;;;;5114409;28;20439;-82
2022/02/09 12:45:14;;;;;;;12.13;9.30;;;23.10;63.90;;;;;;5113975;28;20438;-82
2022/02/09 12:47:43;;;;;;;11.40;8.60;;;23.10;63.80;;;;;;5114099;28;20440;-82
2022/02/09 12:50:12;;;;;;;9.60;8.37;;;23.10;63.90;;;;;;5114056;28;20446;-83
2022/02/09 12:52:41;;;;;;;8.33;7.53;;;23.10;63.90;;;;;;5114128;28;20439;-82
2022/02/09 12:55:13;;;;;;;9.47;7.37;;;23.10;63.90;;;;;;5115815;28;20447;-82
2022/02/09 12:57:42;;;;;;;8.87;7.90;;;23.10;63.90;;;;;;5118277;28;20435;-87
2022/02/09 13:00:21;;;;;;;8.37;7.53;;;23.00;63.90;;;;;;5118054;28;20454;-83
2022/02/09 13:02:49;;;;;;;9.30;7.93;;;23.10;64.00;;;;;;5118327;28;20456;-82
2022/02/09 13:05:16;;;;;;;8.60;7.70;;;23.10;64.00;;;;;;5118127;28;20199;-82
2022/02/09 13:07:51;;;;;;;8.60;7.70;;;23.10;63.90;;;;;;5118160;28;20445;-82
2022/02/09 13:10:28;;;;;;;9.20;6.70;;;23.10;63.90;;;;;;5118114;28;20789;-87
2022/02/09 13:12:57;;;;;;;8.33;7.10;;;23.10;63.70;;;;;;5118077;28;20913;-83
2022/02/09 13:15:30;;;;;;;8.80;7.23;;;23.10;63.90;;;;;;5117958;28;20443;-84
2022/02/09 13:18:15;;;;;;;8.80;7.70;;;23.10;63.90;;;;;;5117895;28;20430;-83
2022/02/09 13:23:52;;;;;;;10.20;7.00;;;23.00;63.90;;;;;;5117559;28;20541;-82
2022/02/09 14:11:41;;;;;;;20.17;12.90;;;23.00;64.90;;;;;;5116769;28;20411;-83
2022/02/09 14:14:55;;;;;;;14.70;10.90;;;23.00;65.00;;;;;;5116531;28;20472;-81
2022/02/09 14:17:32;;;;;;;16.67;12.70;;;23.00;65.20;;;;;;5116406;28;20451;-82
2022/02/09 14:52:59;;;;;;;12.57;9.20;;;23.30;65.00;;;;;;5116249;28;20912;-82
2022/02/09 14:55:42;;;;;;;13.00;9.83;;;23.30;65.10;;;;;;5117003;28;20423;-82
2022/02/09 14:58:11;;;;;;;11.27;8.93;;;23.30;65.00;;;;;;5115628;28;20425;-90
2022/02/09 15:00:51;;;;;;;12.13;9.77;;;23.30;65.10;;;;;;5115724;28;20481;-82
2022/02/09 15:03:36;;;;;;;12.82;9.00;;;23.30;64.90;;;;;;5116563;28;20476;-82
2022/02/09 15:06:40;;;;;;;11.33;8.93;;;23.30;64.90;;;;;;5116131;28;20178;-92
2022/02/09 15:09:12;;;;;;;11.20;8.03;;;23.30;64.70;;;;;;5115660;28;20447;-93
2022/02/09 15:11:51;;;;;;;11.33;8.43;;;23.30;64.70;;;;;;5116485;28;20428;-91
2022/02/09 15:14:25;;;;;;;9.80;8.27;;;23.30;64.70;;;;;;5116481;28;20476;-93
2022/02/09 15:17:00;;;;;;;10.00;8.63;;;23.40;64.90;;;;;;5115820;28;20451;-91
2022/02/09 15:19:42;;;;;;;11.97;7.60;;;23.40;64.80;;;;;;5115672;28;20821;-93
2022/02/09 15:22:12;;;;;;;10.10;7.43;;;23.40;64.80;;;;;;5115924;28;20458;-90
2022/02/09 15:24:42;;;;;;;11.65;8.30;;;23.40;64.80;;;;;;5115444;28;20461;-82
2022/02/09 15:27:14;;;;;;;8.00;7.20;;;23.40;64.80;;;;;;5116279;28;20188;-89
2022/02/09 15:29:41;;;;;;;10.87;7.50;;;23.40;64.70;;;;;;5115464;28;20432;-88
2022/02/09 15:32:18;;;;;;;8.33;6.77;;;23.40;65.10;;;;;;5114914;28;20439;-85
2022/02/09 15:34:50;;;;;;;8.03;7.03;;;23.50;65.00;;;;;;5115456;28;20786;-83
2022/02/09 15:37:25;;;;;;;8.80;7.30;;;23.40;65.00;;;;;;5115284;28;20481;-84
2022/02/09 15:39:54;;;;;;;9.07;7.20;;;23.40;65.00;;;;;;5115652;28;20477;-88
2022/02/09 15:42:47;;;;;;;8.30;6.90;;;23.40;65.00;;;;;;5114877;28;21013;-84
2022/02/09 15:56:22;;;;;;;8.20;6.18;;;23.40;65.00;;;;;;5114710;28;20402;-82
2022/02/09 16:10:36;;;;;;;12.30;6.70;;;23.30;65.70;;;;;;5114293;28;20440;-87
2022/02/09 16:24:07;;;;;;;9.90;5.03;;;23.30;65.80;;;;;;5114498;28;20394;-84
2022/02/09 16:38:01;;;;;;;7.20;5.33;;;23.30;66.10;;;;;;5114013;28;20921;-85
2022/02/09 16:46:13;;;;;;;10.40;5.50;;;23.20;66.10;;;;;;5056560;28;20196;-85
2022/02/09 16:48:45;;;;;;;7.07;5.50;;;23.30;66.00;;;;;;5113904;28;20446;-85
2022/02/09 16:51:16;;;;;;;10.73;5.37;;;23.30;65.90;;;;;;5113889;28;20902;-85
2022/02/09 16:53:50;;;;;;;8.00;5.07;;;23.30;65.80;;;;;;5114539;28;20938;-82
2022/02/09 17:15:42;;;;;;;7.33;4.60;;;23.40;66.00;;;;;;5114044;28;20770;-82
2022/02/09 17:20:53;;;;;;;7.50;4.50;;;23.40;65.80;;;;;;5114162;28;20415;-85
2022/02/09 17:23:20;;;;;;;5.83;4.03;;;23.40;65.70;;;;;;5113841;28;20801;-82
2022/02/09 17:25:46;;;;;;;5.43;4.60;;;23.40;65.70;;;;;;5113469;28;20445;-82
2022/02/09 17:28:16;;;;;;;6.07;4.03;;;23.40;65.70;;;;;;5113804;28;20439;-82
2022/02/09 17:33:47;;;;;;;7.27;4.80;;;23.50;65.60;;;;;;5113730;28;20412;-82
2022/02/09 17:36:20;;;;;;;6.82;4.20;;;23.50;65.70;;;;;;5113838;28;20435;-82
2022/02/09 17:38:53;;;;;;;6.70;5.10;;;23.50;65.70;;;;;;5113735;28;20177;-82
2022/02/09 17:55:55;;;;;;;6.00;4.50;;;23.40;66.70;;;;;;5101580;28;20424;-82
2022/02/09 17:58:27;;;;;;;5.40;3.73;;;23.40;66.60;;;;;;5120712;28;20419;-82
2022/02/09 18:00:54;;;;;;;5.80;4.17;;;23.40;66.80;;;;;;5117457;28;20523;-81
2022/02/09 18:03:23;;;;;;;5.40;3.97;;;23.30;67.20;;;;;;5117109;28;20444;-81
2022/02/09 18:05:52;;;;;;;6.03;4.17;;;23.40;66.80;;;;;;5117159;28;20444;-93
2022/02/09 18:08:24;;;;;;;7.63;4.50;;;23.40;67.00;;;;;;5117077;28;20444;-81
2022/02/09 18:11:03;;;;;;;6.17;4.50;;;23.40;67.90;;;;;;5116907;28;20424;-90
2022/02/09 18:30:10;;;;;;;31.90;26.40;;;23.30;67.20;;;;;;5116600;28;20874;-82
2022/02/09 18:47:15;;;;;;;37.40;33.70;;;23.40;67.90;;;;;;5116056;28;20391;-87
2022/02/09 19:03:51;;;;;;;33.30;29.73;;;23.40;68.00;;;;;;5033432;28;20419;-81
2022/02/09 19:06:21;;;;;;;31.37;28.13;;;23.50;68.00;;;;;;5085961;28;20209;-82
2022/02/09 19:09:01;;;;;;;30.23;27.20;;;23.50;67.90;;;;;;5115856;28;20475;-81
2022/02/09 19:17:03;;;;;;;29.03;26.03;;;23.50;67.80;;;;;;5115257;28;20824;-82
2022/02/09 19:28:55;;;;;;;26.50;23.70;;;23.60;68.10;;;;;;5115668;28;20426;-82
2022/02/09 19:30:59;;;;;;;23.93;21.00;;;23.60;68.10;;;;;;5115179;28;20427;-87
2022/02/09 19:40:32;;;;;;;24.90;20.37;;;23.60;68.10;;;;;;5115326;28;20494;-82
2022/02/09 19:45:12;;;;;;;20.37;18.30;;;23.60;68.30;;;;;;5115284;28;20524;-84
2022/02/09 19:47:54;;;;;;;18.83;16.90;;;23.60;68.20;;;;;;5115693;28;20816;-82
2022/02/09 19:50:46;;;;;;;19.33;17.33;;;23.60;68.10;;;;;;5115119;28;20769;-81
2022/02/09 19:53:25;;;;;;;18.53;16.70;;;23.60;68.10;;;;;;5115059;28;20204;-82
2022/02/09 19:55:56;;;;;;;17.63;15.97;;;23.60;68.00;;;;;;5114977;28;20780;-84
2022/02/09 19:58:35;;;;;;;17.60;15.30;;;23.60;67.90;;;;;;5114718;28;20890;-83
2022/02/09 20:01:02;;;;;;;22.77;16.17;;;23.70;67.90;;;;;;5114296;28;20488;-82
2022/02/09 20:03:29;;;;;;;18.17;15.90;;;23.70;68.00;;;;;;5114410;28;20530;-81
2022/02/09 20:05:55;;;;;;;17.23;15.40;;;23.60;67.80;;;;;;5114350;28;20440;-82
2022/02/09 20:08:22;;;;;;;17.27;15.33;;;23.60;67.80;;;;;;5115303;28;20442;-81
2022/02/09 20:10:49;;;;;;;16.27;14.40;;;23.70;68.00;;;;;;5115225;28;20467;-81
2022/02/09 20:13:16;;;;;;;16.00;14.30;;;23.70;67.80;;;;;;5115471;28;20755;-81
2022/02/09 20:15:44;;;;;;;16.93;15.10;;;23.70;67.80;;;;;;5114663;28;20440;-82
2022/02/09 20:18:11;;;;;;;14.48;12.82;;;23.70;67.70;;;;;;5114257;28;20435;-81
2022/02/09 20:20:37;;;;;;;16.10;14.53;;;23.70;68.00;;;;;;5114403;28;20580;-81
2022/02/09 20:23:06;;;;;;;17.43;15.73;;;23.70;67.90;;;;;;5114500;28;20882;-81
2022/02/09 20:25:33;;;;;;;16.43;13.93;;;23.70;67.90;;;;;;5114443;28;20773;-82
2022/02/09 20:28:00;;;;;;;22.23;15.70;;;23.70;67.90;;;;;;5114797;28;20530;-82
2022/02/09 20:30:37;;;;;;;16.33;14.57;;;23.70;67.70;;;;;;5115185;28;20994;-81
2022/02/09 20:33:10;;;;;;;16.07;14.37;;;23.70;67.60;;;;;;5114150;28;20433;-85
2022/02/09 20:35:37;;;;;;;15.90;14.20;;;23.70;67.70;;;;;;5114318;28;20766;-85
2022/02/09 20:38:04;;;;;;;18.20;13.63;;;23.70;67.60;;;;;;5114325;28;20487;-84
2022/02/09 20:40:37;;;;;;;17.13;13.30;;;23.70;67.60;;;;;;5114191;28;20488;-82
2022/02/09 20:43:06;;;;;;;13.80;12.40;;;23.70;67.50;;;;;;5114823;28;20441;-82
2022/02/09 20:45:36;;;;;;;13.83;12.13;;;23.70;67.60;;;;;;5113955;28;20198;-85
2022/02/09 20:48:07;;;;;;;13.93;12.53;;;23.80;67.60;;;;;;5113969;28;20472;-84
2022/02/09 20:50:36;;;;;;;13.17;11.80;;;23.70;67.50;;;;;;5114249;28;20443;-83
2022/02/09 20:53:03;;;;;;;19.10;12.17;;;23.70;67.60;;;;;;5114123;28;20439;-82
2022/02/09 20:55:30;;;;;;;13.40;12.13;;;23.70;67.60;;;;;;5113815;28;20451;-83
2022/02/09 20:57:58;;;;;;;11.27;10.17;;;23.70;67.60;;;;;;5114006;28;20806;-82
2022/02/09 21:00:35;;;;;;;11.60;10.50;;;23.70;67.60;;;;;;5113733;28;20493;-84
2022/02/09 21:03:19;;;;;;;11.77;10.63;;;23.60;67.50;;;;;;5114035;28;20811;-82
2022/02/09 21:05:59;;;;;;;13.17;11.00;;;23.60;67.40;;;;;;5114290;28;20428;-83
2022/02/09 21:08:40;;;;;;;13.47;11.80;;;23.60;67.50;;;;;;5113806;28;20454;-84
2022/02/09 21:11:15;;;;;;;10.90;9.50;;;23.60;67.50;;;;;;5113950;28;20435;-81
2022/02/09 21:13:51;;;;;;;11.03;9.83;;;23.60;67.70;;;;;;5113991;28;20457;-82
2022/02/09 21:16:28;;;;;;;9.97;8.97;;;23.60;67.60;;;;;;5116494;28;20432;-82
2022/02/09 21:22:25;;;;;;;10.60;9.60;;;23.60;67.50;;;;;;5117714;28;20809;-82
2022/02/09 21:49:06;;;;;;;8.73;7.93;;;23.60;67.80;;;;;;5117551;28;20409;-82
2022/02/09 21:55:27;;;;;;;8.00;7.20;;;23.50;67.80;;;;;;5114198;28;20422;-82
2022/02/09 21:58:01;;;;;;;7.27;6.67;;;23.60;67.70;;;;;;5117293;28;20436;-84
2022/02/09 22:00:41;;;;;;;9.00;8.10;;;23.60;67.70;;;;;;5116760;28;20996;-85
2022/02/09 22:06:24;;;;;;;8.47;7.67;;;23.60;67.60;;;;;;5117249;28;20485;-86
2022/02/09 22:20:10;;;;;;;6.87;6.10;;;23.50;67.60;;;;;;5074975;28;20504;-88
2022/02/09 22:22:51;;;;;;;5.87;5.20;;;23.50;67.60;;;;;;5117088;28;20906;-85
2022/02/09 22:28:08;;;;;;;6.43;5.83;;;23.60;67.40;;;;;;5115796;28;20408;-84
2022/02/09 22:55:21;;;;;;;4.50;4.10;;;23.40;66.90;;;;;;5116335;28;20456;-81
2022/02/09 22:57:54;;;;;;;4.33;4.00;;;23.40;66.90;;;;;;5116153;28;20437;-81